createdAt,value
2018-02-02T00:01:22.181Z,8.05
2018-02-02T00:03:48.207Z,7.97
2018-02-02T00:06:14.215Z,7.82
2018-02-02T00:08:41.328Z,8.13
2018-02-02T00:11:07.503Z,9.18
2018-02-02T00:13:34.435Z,8.02
2018-02-02T00:16:00.461Z,8.73
2018-02-02T00:18:26.953Z,7.47
2018-02-02T00:20:53.847Z,8.48
2018-02-02T00:23:19.887Z,8.23
2018-02-02T00:25:46.292Z,8.80
2018-02-02T00:28:12.424Z,8.98
2018-02-02T00:30:38.451Z,8.90
2018-02-02T00:33:04.459Z,8.98
2018-02-02T00:35:30.803Z,10.20
2018-02-02T00:37:56.809Z,9.23
2018-02-02T00:40:22.799Z,10.40
2018-02-02T00:42:48.867Z,9.50
2018-02-02T00:45:14.863Z,10.57
2018-02-02T00:47:42.434Z,9.65
2018-02-02T00:50:09.346Z,9.68
2018-02-02T00:52:35.384Z,11.02
2018-02-02T00:55:01.386Z,9.70
2018-02-02T00:57:28.170Z,11.00
2018-02-02T00:59:54.215Z,9.65
2018-02-02T01:02:20.175Z,10.38
2018-02-02T01:04:47.309Z,9.73
2018-02-02T01:07:13.532Z,9.90
2018-02-02T01:09:39.589Z,10.13
2018-02-02T01:12:05.666Z,10.25
2018-02-02T01:14:32.420Z,10.40
2018-02-02T01:16:58.495Z,10.55
2018-02-02T01:19:24.518Z,11.18
2018-02-02T01:21:50.514Z,12.32
2018-02-02T01:24:16.571Z,11.45
2018-02-02T01:26:42.667Z,10.95
2018-02-02T01:29:10.039Z,12.30
2018-02-02T01:31:36.035Z,12.18
2018-02-02T01:34:02.299Z,12.23
2018-02-02T01:36:28.372Z,11.85
2018-02-02T01:38:54.444Z,12.98
2018-02-02T01:41:20.602Z,12.70
2018-02-02T01:43:48.327Z,12.95
2018-02-02T01:46:14.982Z,13.18
2018-02-02T01:48:40.976Z,12.60
2018-02-02T01:51:07.019Z,12.10
2018-02-02T01:53:33.137Z,12.77
2018-02-02T01:55:59.831Z,12.43
2018-02-02T01:58:26.668Z,12.15
2018-02-02T02:00:53.993Z,12.63
2018-02-02T02:03:20.775Z,12.57
2018-02-02T02:05:46.849Z,12.20
2018-02-02T02:08:12.961Z,13.82
2018-02-02T02:10:38.976Z,12.80
2018-02-02T02:13:05.010Z,13.60
2018-02-02T02:15:31.051Z,13.15
2018-02-02T02:17:57.073Z,13.10
2018-02-02T02:20:24.829Z,13.18
2018-02-02T02:22:51.474Z,13.23
2018-02-02T02:25:17.530Z,13.88
2018-02-02T02:27:43.514Z,13.68
2018-02-02T02:30:09.559Z,15.07
2018-02-02T02:32:36.251Z,15.20
2018-02-02T02:35:03.100Z,14.18
2018-02-02T02:37:29.127Z,13.50
2018-02-02T02:39:55.143Z,13.65
2018-02-02T02:42:22.979Z,15.18
2018-02-02T02:44:50.192Z,14.60
2018-02-02T02:47:16.829Z,14.05
2018-02-02T02:49:42.881Z,14.35
2018-02-02T02:52:08.853Z,14.85
2018-02-02T02:54:35.598Z,13.70
2018-02-02T02:57:02.531Z,14.35
2018-02-02T02:59:28.532Z,14.50
2018-02-02T03:01:54.580Z,14.40
2018-02-02T03:04:20.598Z,14.45
2018-02-02T03:06:46.624Z,14.30
2018-02-02T03:09:12.632Z,15.20
2018-02-02T03:11:38.670Z,14.07
2018-02-02T03:14:04.640Z,13.35
2018-02-02T03:16:31.547Z,13.57
2018-02-02T03:18:57.568Z,14.95
2018-02-02T03:21:23.618Z,12.95
2018-02-02T03:23:49.590Z,12.43
2018-02-02T03:26:16.372Z,12.40
2018-02-02T03:28:42.372Z,13.60
2018-02-02T03:31:08.348Z,13.88
2018-02-02T03:33:34.302Z,11.80
2018-02-02T03:36:00.344Z,12.00
2018-02-02T03:38:26.927Z,12.75
2018-02-02T03:40:53.872Z,13.32
2018-02-02T03:43:20.394Z,11.32
2018-02-02T03:45:46.438Z,12.70
2018-02-02T03:48:12.456Z,12.27
2018-02-02T03:50:38.430Z,11.90
2018-02-02T03:53:04.430Z,11.67
2018-02-02T03:55:30.391Z,12.45
2018-02-02T03:57:56.372Z,11.47
2018-02-02T04:00:22.352Z,11.33
2018-02-02T04:02:48.319Z,10.20
2018-02-02T04:05:15.086Z,13.20
2018-02-02T04:07:41.102Z,22.00
2018-02-02T04:10:07.839Z,13.48
2018-02-02T04:12:34.329Z,12.10
2018-02-02T04:15:00.273Z,11.20
2018-02-02T04:17:26.274Z,12.00
2018-02-02T04:19:52.245Z,11.73
2018-02-02T04:22:18.824Z,11.70
2018-02-02T04:24:45.271Z,10.63
2018-02-02T04:27:13.004Z,12.40
2018-02-02T04:29:39.790Z,11.05
2018-02-02T04:32:05.790Z,14.52
2018-02-02T04:34:31.767Z,12.13
2018-02-02T04:36:57.795Z,11.67
2018-02-02T04:39:23.808Z,10.98
2018-02-02T04:41:50.999Z,14.20
2018-02-02T04:44:17.708Z,10.10
2018-02-02T04:46:44.481Z,11.12
2018-02-02T04:49:10.449Z,9.65
2018-02-02T04:51:36.443Z,9.93
2018-02-02T04:54:02.575Z,10.47
2018-02-02T04:56:29.505Z,10.38
2018-02-02T04:58:55.588Z,9.93
2018-02-02T05:01:21.571Z,12.23
2018-02-02T05:03:47.609Z,12.37
2018-02-02T05:06:14.187Z,10.50
2018-02-02T05:08:40.143Z,10.77
2018-02-02T05:11:06.164Z,11.03
2018-02-02T05:13:32.152Z,9.98
2018-02-02T05:15:58.127Z,11.20
2018-02-02T05:18:25.440Z,10.23
2018-02-02T05:20:51.501Z,11.65
2018-02-02T05:23:17.531Z,12.60
2018-02-02T05:25:44.234Z,9.23
2018-02-02T05:28:10.301Z,10.07
2018-02-02T05:30:36.446Z,9.02
2018-02-02T05:33:02.471Z,10.65
2018-02-02T05:35:28.466Z,11.50
2018-02-02T05:37:54.576Z,11.43
2018-02-02T05:40:21.232Z,9.68
2018-02-02T05:42:48.006Z,10.70
2018-02-02T05:45:14.620Z,9.73
2018-02-02T05:47:40.631Z,9.05
2018-02-02T05:50:08.598Z,10.13
2018-02-02T05:52:34.634Z,10.80
2018-02-02T05:55:00.738Z,10.95
2018-02-02T05:57:26.708Z,10.93
2018-02-02T05:59:52.753Z,10.33
2018-02-02T06:02:19.060Z,9.93
2018-02-02T06:04:45.138Z,9.95
2018-02-02T06:07:11.180Z,9.80
2018-02-02T06:09:37.166Z,9.85
2018-02-02T06:12:03.288Z,10.00
2018-02-02T06:14:29.338Z,10.35
2018-02-02T06:16:56.274Z,10.10
2018-02-02T06:19:34.858Z,9.82
2018-02-02T06:22:01.119Z,9.65
2018-02-02T06:24:27.414Z,10.05
2018-02-02T06:26:54.477Z,10.45
2018-02-02T06:29:20.717Z,9.80
2018-02-02T06:31:47.740Z,9.95
2018-02-02T06:34:13.928Z,11.32
2018-02-02T06:36:41.926Z,10.57
2018-02-02T06:39:08.017Z,9.35
2018-02-02T06:41:36.712Z,9.90
2018-02-02T06:44:04.005Z,10.40
2018-02-02T06:46:31.114Z,9.40
2018-02-02T06:48:57.078Z,9.00
2018-02-02T06:51:23.807Z,8.93
2018-02-02T06:53:52.097Z,9.13
2018-02-02T06:56:26.700Z,9.88
2018-02-02T06:58:54.242Z,9.05
2018-02-02T07:01:20.233Z,9.48
2018-02-02T07:03:47.239Z,9.17
2018-02-02T07:06:13.215Z,9.25
2018-02-02T07:08:39.180Z,9.50
2018-02-02T07:11:05.324Z,9.48
2018-02-02T07:13:32.211Z,9.27
2018-02-02T07:15:59.243Z,9.10
2018-02-02T07:18:26.003Z,8.75
2018-02-02T07:20:53.233Z,10.48
2018-02-02T07:23:19.250Z,9.80
2018-02-02T07:25:45.800Z,9.73
2018-02-02T07:28:11.754Z,9.70
2018-02-02T07:30:38.506Z,10.00
2018-02-02T07:33:04.498Z,9.60
2018-02-02T07:35:31.370Z,9.93
2018-02-02T07:37:57.342Z,8.68
2018-02-02T07:40:23.554Z,10.30
2018-02-02T07:42:49.587Z,9.30
2018-02-02T07:45:16.738Z,10.82
2018-02-02T07:47:42.708Z,10.45
2018-02-02T07:50:08.714Z,11.00
2018-02-02T07:52:35.069Z,11.75
2018-02-02T07:55:02.510Z,9.77
2018-02-02T07:57:29.417Z,10.07
2018-02-02T07:59:56.808Z,10.40
2018-02-02T08:02:24.823Z,11.02
2018-02-02T08:04:51.566Z,10.77
2018-02-02T08:07:17.483Z,10.80
2018-02-02T08:09:44.237Z,11.80
2018-02-02T08:12:11.078Z,12.00
2018-02-02T08:14:37.132Z,12.40
2018-02-02T08:17:07.287Z,12.77
2018-02-02T08:19:35.018Z,11.57
2018-02-02T08:22:03.897Z,12.20
2018-02-02T08:24:29.932Z,12.40
2018-02-02T08:26:55.916Z,13.20
2018-02-02T08:29:22.958Z,11.90
2018-02-02T08:31:49.778Z,12.77
2018-02-02T08:34:16.257Z,10.10
2018-02-02T08:36:43.084Z,11.95
2018-02-02T08:39:09.975Z,11.23
2018-02-02T08:41:36.857Z,11.85
2018-02-02T08:44:04.770Z,12.40
2018-02-02T08:46:30.814Z,11.95
2018-02-02T08:48:57.879Z,12.50
2018-02-02T08:51:24.607Z,12.30
2018-02-02T08:53:52.064Z,12.73
2018-02-02T08:56:18.059Z,11.45
2018-02-02T08:58:44.000Z,11.27
2018-02-02T09:01:18.222Z,12.97
2018-02-02T09:03:45.542Z,11.73
2018-02-02T09:06:11.542Z,11.77
2018-02-02T09:08:37.618Z,11.47
2018-02-02T09:11:03.591Z,11.82
2018-02-02T09:13:31.691Z,12.70
2018-02-02T09:16:01.810Z,11.63
2018-02-02T09:18:27.860Z,12.65
2018-02-02T09:20:55.519Z,11.75
2018-02-02T09:23:22.086Z,14.85
2018-02-02T09:25:48.061Z,11.27
2018-02-02T09:28:14.648Z,12.67
2018-02-02T09:30:40.733Z,12.23
2018-02-02T09:33:06.726Z,11.95
2018-02-02T09:35:33.781Z,11.70
2018-02-02T09:38:00.779Z,11.85
2018-02-02T09:40:27.576Z,11.90
2018-02-02T09:42:54.155Z,11.75
2018-02-02T09:45:22.497Z,11.88
2018-02-02T09:47:50.165Z,11.80
2018-02-02T09:50:17.333Z,10.93
2018-02-02T09:52:43.959Z,11.25
2018-02-02T09:55:10.947Z,11.93
2018-02-02T09:57:36.990Z,12.65
2018-02-02T10:00:03.060Z,10.85
2018-02-02T10:02:29.015Z,11.48
2018-02-02T10:04:54.990Z,11.00
2018-02-02T10:07:20.958Z,10.80
2018-02-02T10:09:47.860Z,11.03
2018-02-02T10:12:13.922Z,11.80
2018-02-02T10:14:43.320Z,11.70
2018-02-02T10:17:10.035Z,10.93
2018-02-02T10:19:38.604Z,10.73
2018-02-02T10:22:06.746Z,11.30
2018-02-02T10:24:35.193Z,10.70
2018-02-02T10:27:01.185Z,12.20
2018-02-02T10:29:27.160Z,10.33
2018-02-02T10:31:53.590Z,11.20
2018-02-02T10:34:20.465Z,10.43
2018-02-02T10:36:49.938Z,11.55
2018-02-02T10:39:16.148Z,10.02
2018-02-02T10:41:43.061Z,10.93
2018-02-02T10:44:09.052Z,11.30
2018-02-02T10:46:35.094Z,10.93
2018-02-02T10:49:01.292Z,10.27
2018-02-02T10:51:28.292Z,10.53
2018-02-02T10:53:54.299Z,11.47
2018-02-02T10:56:20.277Z,11.10
2018-02-02T10:58:46.999Z,10.97
2018-02-02T11:01:19.235Z,10.82
2018-02-02T11:03:50.083Z,12.60
2018-02-02T11:06:16.195Z,12.73
2018-02-02T11:08:42.329Z,11.37
2018-02-02T11:11:08.351Z,10.95
2018-02-02T11:13:35.175Z,11.52
2018-02-02T11:16:01.822Z,11.12
2018-02-02T11:18:28.017Z,11.43
2018-02-02T11:20:55.771Z,11.40
2018-02-02T11:23:23.903Z,11.02
2018-02-02T11:25:53.648Z,10.60
2018-02-02T11:28:24.451Z,11.15
2018-02-02T11:30:51.442Z,10.37
2018-02-02T11:33:25.669Z,10.33
2018-02-02T11:35:52.294Z,11.00
2018-02-02T11:38:20.983Z,12.17
2018-02-02T11:40:48.230Z,11.18
2018-02-02T11:43:16.518Z,9.07
2018-02-02T11:45:45.459Z,10.67
2018-02-02T11:48:12.625Z,10.00
2018-02-02T11:50:41.499Z,9.23
2018-02-02T11:53:08.250Z,10.90
2018-02-02T11:55:35.312Z,10.50
2018-02-02T11:58:02.410Z,8.73
2018-02-02T12:00:30.659Z,8.87
2018-02-02T12:02:58.197Z,9.27
2018-02-02T12:05:26.386Z,9.27
2018-02-02T12:07:53.202Z,9.30
2018-02-02T12:10:19.248Z,8.53
2018-02-02T12:12:51.210Z,9.05
2018-02-02T12:15:17.266Z,8.80
2018-02-02T12:17:54.970Z,9.03
2018-02-02T12:20:24.118Z,8.82
2018-02-02T12:22:57.178Z,8.73
2018-02-02T12:25:42.011Z,9.00
2018-02-02T12:28:24.888Z,9.23
2018-02-02T12:30:57.970Z,9.70
2018-02-02T12:33:45.131Z,8.30
2018-02-02T12:36:12.003Z,8.45
2018-02-02T12:38:39.833Z,8.10
2018-02-02T12:41:05.895Z,7.23
2018-02-02T12:43:33.639Z,7.70
2018-02-02T12:46:00.935Z,8.63
2018-02-02T12:48:39.950Z,9.60
2018-02-02T12:51:15.482Z,9.05
2018-02-02T12:53:41.567Z,9.13
2018-02-02T12:56:07.507Z,9.43
2018-02-02T12:58:34.210Z,9.60
2018-02-02T13:01:00.923Z,10.18
2018-02-02T13:03:26.906Z,9.35
2018-02-02T13:05:54.738Z,10.60
2018-02-02T13:08:21.299Z,10.85
2018-02-02T13:10:47.259Z,9.68
2018-02-02T13:13:13.199Z,10.33
2018-02-02T13:15:39.191Z,9.40
2018-02-02T13:18:05.407Z,9.63
2018-02-02T13:20:32.228Z,10.65
2018-02-02T13:22:58.946Z,11.38
2018-02-02T13:25:25.038Z,10.23
2018-02-02T13:27:52.637Z,10.57
2018-02-02T13:30:18.680Z,10.25
2018-02-02T13:32:45.573Z,9.00
2018-02-02T13:35:11.599Z,10.80
2018-02-02T13:37:38.388Z,9.88
2018-02-02T13:40:06.905Z,9.68
2018-02-02T13:42:35.232Z,9.88
2018-02-02T13:45:01.211Z,9.77
2018-02-02T13:47:30.640Z,10.37
2018-02-02T13:49:58.138Z,10.88
2018-02-02T13:52:25.110Z,10.32
2018-02-02T13:54:53.818Z,9.00
2018-02-02T13:57:20.120Z,10.27
2018-02-02T13:59:48.160Z,11.18
2018-02-02T14:02:14.940Z,10.40
2018-02-02T14:04:41.025Z,9.70
2018-02-02T14:07:07.311Z,9.85
2018-02-02T14:09:33.270Z,8.82
2018-02-02T14:12:01.662Z,10.20
2018-02-02T14:17:09.970Z,10.80
2018-02-02T14:19:39.759Z,9.73
2018-02-02T14:22:12.925Z,10.23
2018-02-02T14:24:39.094Z,10.60
2018-02-02T14:27:08.895Z,10.50
2018-02-02T14:29:40.961Z,9.67
2018-02-02T14:32:07.771Z,9.65
2018-02-02T14:34:34.915Z,9.60
2018-02-02T14:37:01.643Z,10.13
2018-02-02T14:39:27.761Z,9.80
2018-02-02T14:41:55.430Z,9.43
2018-02-02T14:44:22.886Z,10.15
2018-02-02T14:46:49.046Z,9.60
2018-02-02T14:49:22.127Z,10.00
2018-02-02T14:51:58.929Z,9.88
2018-02-02T14:54:26.139Z,9.43
2018-02-02T14:56:55.046Z,9.02
2018-02-02T14:59:23.621Z,11.05
2018-02-02T15:01:57.403Z,11.20
2018-02-02T15:04:33.630Z,9.85
2018-02-02T15:07:05.709Z,10.00
2018-02-02T15:09:34.649Z,9.18
2018-02-02T15:12:02.077Z,9.13
2018-02-02T15:14:30.058Z,11.07
2018-02-02T15:16:57.977Z,9.45
2018-02-02T15:19:27.523Z,8.95
2018-02-02T15:21:54.365Z,9.90
2018-02-02T15:24:22.327Z,9.43
2018-02-02T15:26:51.087Z,10.55
2018-02-02T15:29:18.175Z,9.93
2018-02-02T15:31:48.249Z,10.80
2018-02-02T15:34:15.646Z,8.40
2018-02-02T15:36:44.677Z,9.50
2018-02-02T15:39:11.617Z,8.93
2018-02-02T15:41:40.803Z,8.45
2018-02-02T15:44:10.458Z,8.40
2018-02-02T15:46:42.053Z,8.27
2018-02-02T15:49:08.792Z,8.93
2018-02-02T15:51:35.674Z,8.80
2018-02-02T15:54:02.642Z,9.25
2018-02-02T15:56:28.794Z,8.30
2018-02-02T15:58:56.959Z,9.07
2018-02-02T16:01:23.698Z,9.02
2018-02-02T16:03:52.269Z,9.45
2018-02-02T16:06:18.365Z,10.13
2018-02-02T16:08:45.818Z,8.33
2018-02-02T16:11:15.801Z,9.32
2018-02-02T16:13:58.126Z,9.55
2018-02-02T16:16:30.517Z,9.23
2018-02-02T16:18:58.004Z,8.33
2018-02-02T16:21:26.765Z,10.05
2018-02-02T16:23:56.887Z,8.70
2018-02-02T16:28:57.620Z,10.23
2018-02-02T16:31:23.742Z,10.20
2018-02-02T16:36:26.582Z,8.83
2018-02-02T16:38:57.318Z,7.97
2018-02-02T16:41:24.742Z,8.03
2018-02-02T16:43:58.127Z,8.40
2018-02-02T16:49:08.766Z,9.27
2018-02-02T16:51:36.641Z,8.77
2018-02-02T16:54:05.780Z,9.80
2018-02-02T16:56:32.711Z,8.90
2018-02-02T17:01:40.407Z,8.47
2018-02-02T17:04:11.590Z,8.70
2018-02-02T17:06:39.126Z,7.80
2018-02-02T17:14:27.952Z,7.67
2018-02-02T17:19:32.817Z,8.57
2018-02-02T17:22:05.886Z,7.30
2018-02-02T17:24:35.803Z,7.50
2018-02-02T17:27:08.347Z,8.03
2018-02-02T17:29:43.817Z,7.00
2018-02-02T17:32:11.671Z,7.07
2018-02-02T17:37:15.333Z,7.47
2018-02-02T17:39:42.745Z,8.67
2018-02-02T17:42:09.679Z,7.57
2018-02-02T17:49:47.034Z,8.10
2018-02-02T17:52:18.659Z,6.68
2018-02-02T17:54:46.235Z,6.93
2018-02-02T17:59:51.475Z,7.57
2018-02-02T18:02:29.834Z,7.47
2018-02-02T18:05:01.715Z,7.30
2018-02-02T18:07:27.792Z,7.37
2018-02-02T18:09:56.025Z,8.17
2018-02-02T18:12:34.459Z,7.27
2018-02-02T18:15:00.620Z,8.20
2018-02-02T18:17:28.094Z,7.37
2018-02-02T18:19:55.115Z,8.13
2018-02-02T18:25:02.494Z,7.00
2018-02-02T18:27:36.646Z,6.97
2018-02-02T18:30:07.572Z,6.53
2018-02-02T18:32:36.383Z,8.20
2018-02-02T18:35:03.167Z,7.40
2018-02-02T18:37:32.795Z,8.13
2018-02-02T18:40:00.095Z,7.93
2018-02-02T18:42:27.115Z,8.07
2018-02-02T18:44:53.884Z,8.20
2018-02-02T18:47:19.937Z,7.60
2018-02-02T18:49:46.711Z,7.90
2018-02-02T18:52:12.731Z,7.87
2018-02-02T18:54:38.802Z,7.10
2018-02-02T18:57:06.513Z,7.60
2018-02-02T18:59:32.596Z,6.83
2018-02-02T19:02:00.604Z,7.40
2018-02-02T19:04:27.629Z,6.60
2018-02-02T19:06:53.680Z,7.20
2018-02-02T19:09:21.641Z,9.50
2018-02-02T19:11:47.718Z,8.50
2018-02-02T19:14:14.511Z,8.30
2018-02-02T19:16:43.348Z,9.27
2018-02-02T19:19:09.336Z,9.07
2018-02-02T19:21:35.607Z,9.17
2018-02-02T19:24:05.551Z,9.73
2018-02-02T19:26:34.160Z,9.10
2018-02-02T19:29:02.264Z,8.37
2018-02-02T19:31:30.168Z,9.17
2018-02-02T19:33:58.508Z,9.40
2018-02-02T19:36:24.556Z,10.10
2018-02-02T19:38:54.258Z,8.10
2018-02-02T19:41:21.090Z,9.87
2018-02-02T19:43:47.830Z,9.70
2018-02-02T19:46:16.019Z,9.23
2018-02-02T19:48:42.575Z,9.43
2018-02-02T19:51:08.722Z,9.67
2018-02-02T19:53:37.219Z,10.53
2018-02-02T19:56:03.604Z,10.80
2018-02-02T19:58:29.571Z,10.97
2018-02-02T20:00:56.782Z,10.57
2018-02-02T20:03:22.743Z,10.80
2018-02-02T20:05:49.802Z,11.50
2018-02-02T20:08:17.262Z,9.50
2018-02-02T20:10:43.642Z,9.80
2018-02-02T20:13:10.228Z,9.93
2018-02-02T20:15:36.199Z,10.23
2018-02-02T20:18:02.736Z,10.53
2018-02-02T20:20:28.843Z,10.60
2018-02-02T20:22:55.697Z,10.83
2018-02-02T20:25:21.678Z,10.97
2018-02-02T20:27:47.980Z,10.37
2018-02-02T20:30:14.012Z,10.70
2018-02-02T20:32:40.048Z,11.00
2018-02-02T20:35:05.994Z,11.97
2018-02-02T20:37:32.633Z,13.77
2018-02-02T20:39:59.267Z,12.37
2018-02-02T20:42:26.093Z,12.87
2018-02-02T20:44:52.175Z,10.67
2018-02-02T20:47:20.250Z,12.73
2018-02-02T20:49:47.550Z,11.73
2018-02-02T20:52:15.640Z,11.60
2018-02-02T20:54:42.850Z,11.53
2018-02-02T20:57:08.898Z,11.25
2018-02-02T20:59:35.432Z,11.07
2018-02-02T21:02:02.408Z,11.27
2018-02-02T21:04:28.505Z,9.23
2018-02-02T21:06:54.621Z,11.80
2018-02-02T21:09:21.144Z,11.02
2018-02-02T21:11:48.484Z,9.85
2018-02-02T21:14:15.442Z,10.17
2018-02-02T21:16:44.043Z,12.18
2018-02-02T21:19:13.113Z,12.37
2018-02-02T21:21:39.971Z,11.12
2018-02-02T21:24:07.413Z,9.50
2018-02-02T21:26:34.263Z,10.95
2018-02-02T21:29:01.532Z,11.35
2018-02-02T21:31:27.594Z,11.15
2018-02-02T21:33:54.239Z,10.80
2018-02-02T21:36:20.686Z,11.35
2018-02-02T21:38:47.593Z,10.60
2018-02-02T21:41:13.538Z,10.45
2018-02-02T21:43:39.585Z,10.50
2018-02-02T21:46:05.580Z,9.80
2018-02-02T21:48:32.462Z,10.30
2018-02-02T21:50:59.794Z,11.33
2018-02-02T21:53:28.878Z,11.40
2018-02-02T21:55:54.839Z,10.20
2018-02-02T21:58:20.808Z,11.70
2018-02-02T22:00:48.868Z,9.43
2018-02-02T22:03:15.501Z,11.95
2018-02-02T22:05:43.359Z,10.40
2018-02-02T22:08:13.012Z,11.00
2018-02-02T22:10:39.961Z,11.38
2018-02-02T22:13:06.874Z,10.97
2018-02-02T22:18:06.179Z,10.47
2018-02-02T22:20:34.402Z,10.95
2018-02-02T22:23:01.805Z,10.70
2018-02-02T22:25:27.858Z,12.37
2018-02-02T22:27:55.443Z,9.47
2018-02-02T22:30:21.892Z,10.15
2018-02-02T22:32:48.743Z,10.05
2018-02-02T22:35:14.715Z,9.93
2018-02-02T22:37:41.782Z,11.23
2018-02-02T22:40:08.732Z,11.90
2018-02-02T22:42:35.118Z,11.20
2018-02-02T22:45:02.846Z,10.80
2018-02-02T22:47:29.476Z,10.40
2018-02-02T22:49:58.714Z,11.18
2018-02-02T22:52:25.961Z,10.10
2018-02-02T22:54:52.956Z,11.05
2018-02-02T22:57:20.449Z,10.48
2018-02-02T22:59:49.561Z,10.00
2018-02-02T23:02:15.583Z,10.50
2018-02-02T23:04:41.552Z,11.57
2018-02-02T23:07:09.287Z,11.27
2018-02-02T23:09:37.916Z,11.68
2018-02-02T23:12:04.834Z,10.60
2018-02-02T23:14:31.919Z,11.57
2018-02-02T23:16:57.871Z,10.18
2018-02-02T23:19:23.839Z,9.97
2018-02-02T23:21:51.123Z,10.67
2018-02-02T23:24:17.087Z,10.32
2018-02-02T23:26:43.756Z,10.17
2018-02-02T23:29:09.755Z,10.98
2018-02-02T23:31:36.464Z,10.07
2018-02-02T23:34:04.184Z,9.98
2018-02-02T23:36:30.145Z,10.57
2018-02-02T23:38:56.183Z,11.00
2018-02-02T23:41:23.764Z,10.85
2018-02-02T23:43:50.822Z,10.77
2018-02-02T23:46:17.460Z,10.48
2018-02-02T23:48:43.572Z,9.77
2018-02-02T23:51:09.511Z,9.37
2018-02-02T23:53:35.474Z,10.27
2018-02-02T23:56:02.813Z,10.50
2018-02-02T23:58:29.580Z,9.20
